Time;durP1;ratioP1;P1;durP2;ratioP2;P2;SDS_P1;SDS_P2;PMS_P1;PMS_P2;Temp;Humidity;BMP_temperature;BMP_pressure;BME280_temperature;BME280_humidity;BME280_pressure;Samples;Min_cycle;Max_cycle;Signal;HPM_P1;HPM_P2
2023/07/24 00:01:47;;;;;;;;;;;;;;;;;;5059248;28;19932;-77
2023/07/24 00:04:20;;;;;;;;;;;;;;;;;;5062240;28;20396;-77
2023/07/24 00:06:47;;;;;;;;;;;;;;;;;;5065891;28;20285;-77
2023/07/24 00:09:15;;;;;;;;;;;;;;;;;;5062607;28;20178;-77
2023/07/24 00:11:42;;;;;;;;;;;;;;;;;;5061447;28;19939;-77
2023/07/24 00:14:10;;;;;;;;;;;;;;;;;;5068101;28;19932;-77
2023/07/24 00:16:37;;;;;;;;;;;;;;;;;;5059592;28;19928;-78
2023/07/24 00:19:10;;;;;;;;;;;;;;;;;;5057438;28;19925;-77
2023/07/24 00:21:37;;;;;;;;;;;;;;;;;;5060744;28;19932;-77
2023/07/24 00:24:10;;;;;;;;;;;;;;;;;;5067741;28;19928;-77
2023/07/24 00:26:38;;;;;;;;;;;;;;;;;;5069821;28;19925;-77
2023/07/24 00:29:10;;;;;;;;;;;;;;;;;;5083891;28;20388;-77
2023/07/24 00:31:38;;;;;;;;;;;;;;;;;;5061209;28;19928;-77
2023/07/24 00:34:10;;;;;;;;;;;;;;;;;;5065547;28;19924;-77
2023/07/24 00:36:40;;;;;;;;;;;;;;;;;;5063508;28;19932;-78
2023/07/24 00:39:07;;;;;;;;;;;;;;;;;;5060402;28;21100;-78
2023/07/24 00:41:40;;;;;;;;;;;;;;;;;;5060456;28;20419;-77
2023/07/24 00:44:12;;;;;;;;;;;;;;;;;;5058379;28;20189;-77
2023/07/24 00:46:45;;;;;;;;;;;;;;;;;;5064924;28;20418;-77
2023/07/24 00:49:13;;;;;;;;;;;;;;;;;;5058937;28;19932;-78
2023/07/24 00:51:40;;;;;;;;;;;;;;;;;;5058862;28;19935;-78
2023/07/24 00:54:08;;;;;;;;;;;;;;;;;;5063648;28;19924;-77
2023/07/24 00:56:40;;;;;;;;;;;;;;;;;;5059980;28;19924;-77
2023/07/24 00:59:14;;;;;;;;;;;;;;;;;;5058125;28;20376;-77
2023/07/24 01:01:46;;;;;;;;;;;;;;;;;;5059041;28;19924;-78
2023/07/24 01:04:19;;;;;;;;;;;;;;;;;;5058509;28;19936;-77
2023/07/24 01:06:47;;;;;;;;;;;;;;;;;;5058230;28;19936;-78
2023/07/24 01:09:19;;;;;;;;;;;;;;;;;;5057913;28;19936;-78
2023/07/24 01:11:47;;;;;;;;;;;;;;;;;;5065910;28;19928;-77
2023/07/24 01:14:15;;;;;;;;;;;;;;;;;;5064020;28;19932;-78
2023/07/24 01:16:48;;;;;;;;;;;;;;;;;;5066827;28;20320;-77
2023/07/24 01:19:15;;;;;;;;;;;;;;;;;;5062353;28;19925;-77
2023/07/24 01:21:43;;;;;;;;;;;;;;;;;;5062328;28;19952;-78
2023/07/24 01:24:10;;;;;;;;;;;;;;;;;;5056302;28;19941;-78
2023/07/24 01:26:38;;;;;;;;;;;;;;;;;;5059589;28;20621;-78
2023/07/24 01:29:10;;;;;;;;;;;;;;;;;;5057967;28;19939;-78
2023/07/24 01:31:38;;;;;;;;;;;;;;;;;;5077220;28;19933;-78
2023/07/24 01:34:12;;;;;;;;;;;;;;;;;;5062433;28;19928;-78
2023/07/24 01:36:46;;;;;;;;;;;;;;;;;;5068160;28;19928;-77
2023/07/24 01:39:19;;;;;;;;;;;;;;;;;;5068153;28;19947;-78
2023/07/24 01:41:51;;;;;;;;;;;;;;;;;;5067935;28;20426;-77
2023/07/24 01:44:19;;;;;;;;;;;;;;;;;;5062259;28;19935;-78
2023/07/24 01:46:46;;;;;;;;;;;;;;;;;;5057196;28;19934;-77
2023/07/24 01:49:14;;;;;;;;;;;;;;;;;;5059141;28;20300;-78
2023/07/24 01:51:47;;;;;;;;;;;;;;;;;;5061747;28;19925;-77
2023/07/24 01:54:14;;;;;;;;;;;;;;;;;;5057778;28;19928;-78
2023/07/24 01:56:47;;;;;;;;;;;;;;;;;;5051667;28;20179;-77
2023/07/24 01:59:14;;;;;;;;;;;;;;;;;;5060550;28;19928;-78
2023/07/24 02:01:47;;;;;;;;;;;;;;;;;;5057557;28;19928;-77
2023/07/24 02:04:15;;;;;;;;;;;;;;;;;;5057658;28;19924;-78
2023/07/24 02:06:43;;;;;;;;;;;;;;;;;;5064304;28;20248;-78
2023/07/24 02:09:10;;;;;;;;;;;;;;;;;;5057856;28;19924;-78
2023/07/24 02:11:43;;;;;;;;;;;;;;;;;;5058391;28;19931;-77
2023/07/24 02:14:10;;;;;;;;;;;;;;;;;;5062243;28;19928;-78
2023/07/24 02:16:38;;;;;;;;;;;;;;;;;;5063616;28;19932;-77
2023/07/24 02:19:05;;;;;;;;;;;;;;;;;;5058395;28;19931;-77
2023/07/24 02:21:33;;;;;;;;;;;;;;;;;;5061532;28;19925;-77
2023/07/24 02:24:00;;;;;;;;;;;;;;;;;;5061656;28;19925;-77
2023/07/24 02:26:31;;;;;;;;;;;;;;;;;;5052945;28;19932;-77
2023/07/24 02:28:58;;;;;;;;;;;;;;;;;;5064204;28;19929;-77
2023/07/24 02:31:26;;;;;;;;;;;;;;;;;;5063595;28;19940;-78
2023/07/24 02:33:53;;;;;;;;;;;;;;;;;;5063520;28;19928;-77
2023/07/24 02:36:26;;;;;;;;;;;;;;;;;;5064028;28;19929;-78
2023/07/24 02:38:53;;;;;;;;;;;;;;;;;;5064868;28;20368;-78
2023/07/24 02:41:21;;;;;;;;;;;;;;;;;;5062250;28;19932;-78
2023/07/24 02:43:49;;;;;;;;;;;;;;;;;;5073552;28;19925;-78
2023/07/24 02:46:16;;;;;;;;;;;;;;;;;;5062244;28;20308;-78
2023/07/24 02:48:44;;;;;;;;;;;;;;;;;;5065563;28;19924;-77
2023/07/24 02:51:11;;;;;;;;;;;;;;;;;;5062713;28;19932;-78
2023/07/24 02:53:44;;;;;;;;;;;;;;;;;;5058220;28;19928;-78
2023/07/24 02:56:11;;;;;;;;;;;;;;;;;;5066881;28;20400;-77
2023/07/24 02:58:39;;;;;;;;;;;;;;;;;;5064982;28;19928;-77
2023/07/24 03:01:13;;;;;;;;;;;;;;;;;;5063540;28;19931;-78
2023/07/24 03:03:46;;;;;;;;;;;;;;;;;;5079965;28;19924;-77
2023/07/24 03:06:20;;;;;;;;;;;;;;;;;;5062271;28;19928;-77
2023/07/24 03:08:48;;;;;;;;;;;;;;;;;;5059638;28;19932;-77
2023/07/24 03:11:15;;;;;;;;;;;;;;;;;;5066994;28;20289;-78
2023/07/24 03:13:48;;;;;;;;;;;;;;;;;;5081927;28;19924;-77
2023/07/24 03:16:17;;;;;;;;;;;;;;;;;;5065665;28;20320;-77
2023/07/24 03:18:44;;;;;;;;;;;;;;;;;;5061317;28;19935;-78
2023/07/24 03:21:12;;;;;;;;;;;;;;;;;;5061426;28;19931;-77
2023/07/24 03:23:44;;;;;;;;;;;;;;;;;;5061696;28;19967;-77
2023/07/24 03:26:12;;;;;;;;;;;;;;;;;;5063613;28;19931;-78
2023/07/24 03:28:39;;;;;;;;;;;;;;;;;;5056676;28;19933;-77
2023/07/24 03:31:12;;;;;;;;;;;;;;;;;;5063479;28;19925;-77
2023/07/24 03:33:44;;;;;;;;;;;;;;;;;;5063668;28;19931;-78
2023/07/24 03:36:12;;;;;;;;;;;;;;;;;;5065816;28;19924;-77
2023/07/24 03:38:40;;;;;;;;;;;;;;;;;;5068775;28;20553;-77
2023/07/24 03:41:12;;;;;;;;;;;;;;;;;;5071303;28;20514;-77
2023/07/24 03:43:40;;;;;;;;;;;;;;;;;;5067062;28;19935;-77
2023/07/24 03:46:13;;;;;;;;;;;;;;;;;;5070011;28;19957;-77
2023/07/24 03:48:45;;;;;;;;;;;;;;;;;;5069042;28;19939;-78
2023/07/24 03:51:13;;;;;;;;;;;;;;;;;;5066440;28;19928;-77
2023/07/24 03:53:46;;;;;;;;;;;;;;;;;;5057064;28;19932;-77
2023/07/24 03:56:18;;;;;;;;;;;;;;;;;;5062359;28;19928;-77
2023/07/24 03:58:46;;;;;;;;;;;;;;;;;;5066010;28;19932;-77
2023/07/24 04:01:18;;;;;;;;;;;;;;;;;;5060335;28;19925;-77
2023/07/24 04:03:46;;;;;;;;;;;;;;;;;;5061624;28;19940;-77
2023/07/24 04:06:18;;;;;;;;;;;;;;;;;;5061404;28;20485;-77
2023/07/24 04:08:46;;;;;;;;;;;;;;;;;;5063716;28;20372;-78
2023/07/24 04:11:13;;;;;;;;;;;;;;;;;;5066073;28;20385;-78
2023/07/24 04:13:41;;;;;;;;;;;;;;;;;;5060177;28;19936;-77
2023/07/24 04:16:09;;;;;;;;;;;;;;;;;;5064684;28;19925;-78
2023/07/24 04:18:36;;;;;;;;;;;;;;;;;;5065130;28;19928;-77
2023/07/24 04:21:04;;;;;;;;;;;;;;;;;;5064850;28;19932;-77
2023/07/24 04:23:31;;;;;;;;;;;;;;;;;;5064325;28;19936;-77
2023/07/24 04:25:59;;;;;;;;;;;;;;;;;;5059561;28;19924;-77
2023/07/24 04:28:27;;;;;;;;;;;;;;;;;;5060356;28;20463;-77
2023/07/24 04:30:59;;;;;;;;;;;;;;;;;;5061341;28;19928;-77
2023/07/24 04:33:27;;;;;;;;;;;;;;;;;;5073594;28;19928;-78
2023/07/24 04:36:00;;;;;;;;;;;;;;;;;;5062289;28;19931;-77
2023/07/24 04:38:27;;;;;;;;;;;;;;;;;;5062056;28;20419;-78
2023/07/24 04:40:55;;;;;;;;;;;;;;;;;;5061209;28;19932;-78
2023/07/24 04:43:22;;;;;;;;;;;;;;;;;;5057417;28;20003;-77
2023/07/24 04:45:55;;;;;;;;;;;;;;;;;;5058638;28;19928;-78
2023/07/24 04:48:27;;;;;;;;;;;;;;;;;;5058551;28;20377;-77
2023/07/24 04:50:55;;;;;;;;;;;;;;;;;;5058691;28;19932;-77
2023/07/24 04:53:23;;;;;;;;;;;;;;;;;;5062886;28;19931;-77
2023/07/24 04:55:50;;;;;;;;;;;;;;;;;;5064641;28;19936;-78
2023/07/24 04:58:23;;;;;;;;;;;;;;;;;;5064141;28;19936;-78
2023/07/24 05:00:55;;;;;;;;;;;;;;;;;;5059727;28;19929;-78
2023/07/24 05:03:23;;;;;;;;;;;;;;;;;;5055941;28;21051;-78
2023/07/24 05:05:50;;;;;;;;;;;;;;;;;;5060889;28;19936;-77
2023/07/24 05:08:23;;;;;;;;;;;;;;;;;;5060308;28;19928;-77
2023/07/24 05:10:56;;;;;;;;;;;;;;;;;;5059911;28;19929;-77
2023/07/24 05:13:23;;;;;;;;;;;;;;;;;;5063822;28;20289;-77
2023/07/24 05:15:51;;;;;;;;;;;;;;;;;;5058362;28;19928;-78
2023/07/24 05:18:23;;;;;;;;;;;;;;;;;;5075774;28;20312;-77
2023/07/24 05:20:52;;;;;;;;;;;;;;;;;;5074989;28;19935;-78
2023/07/24 05:23:19;;;;;;;;;;;;;;;;;;5057704;28;21788;-78
2023/07/24 05:25:47;;;;;;;;;;;;;;;;;;5061647;28;19933;-77
2023/07/24 05:28:20;;;;;;;;;;;;;;;;;;5067284;28;20265;-78
2023/07/24 05:30:52;;;;;;;;;;;;;;;;;;5062304;28;19939;-78
2023/07/24 05:33:20;;;;;;;;;;;;;;;;;;5060963;28;19924;-78
2023/07/24 05:35:52;;;;;;;;;;;;;;;;;;5067393;28;19936;-78
2023/07/24 05:38:20;;;;;;;;;;;;;;;;;;5070363;28;19933;-78
2023/07/24 05:40:52;;;;;;;;;;;;;;;;;;5068920;28;19948;-77
2023/07/24 05:43:25;;;;;;;;;;;;;;;;;;5068506;28;19931;-78
2023/07/24 05:45:58;;;;;;;;;;;;;;;;;;5061002;28;19929;-78
2023/07/24 05:48:25;;;;;;;;;;;;;;;;;;5054942;28;19940;-78
2023/07/24 05:50:58;;;;;;;;;;;;;;;;;;5075969;28;19929;-78
2023/07/24 05:53:26;;;;;;;;;;;;;;;;;;5058370;28;19928;-78
2023/07/24 05:55:53;;;;;;;;;;;;;;;;;;5058872;28;19925;-78
2023/07/24 05:58:26;;;;;;;;;;;;;;;;;;5058930;28;19967;-77
2023/07/24 06:00:54;;;;;;;;;;;;;;;;;;5057491;28;19925;-78
2023/07/24 06:03:22;;;;;;;;;;;;;;;;;;5063930;28;20360;-77
2023/07/24 06:05:49;;;;;;;;;;;;;;;;;;5063126;28;19932;-77
2023/07/24 06:08:22;;;;;;;;;;;;;;;;;;5061571;28;19929;-77
2023/07/24 06:10:49;;;;;;;;;;;;;;;;;;5066141;28;19940;-77
2023/07/24 06:13:17;;;;;;;;;;;;;;;;;;5061871;28;20296;-77
2023/07/24 06:15:44;;;;;;;;;;;;;;;;;;5059739;28;19939;-77
2023/07/24 06:18:17;;;;;;;;;;;;;;;;;;5072354;28;19928;-77
2023/07/24 06:20:49;;;;;;;;;;;;;;;;;;5063261;28;20371;-78
2023/07/24 06:23:17;;;;;;;;;;;;;;;;;;5075479;28;19925;-77
2023/07/24 06:25:51;;;;;;;;;;;;;;;;;;5067560;28;19928;-77
2023/07/24 06:28:19;;;;;;;;;;;;;;;;;;5071044;28;20375;-78
2023/07/24 06:30:51;;;;;;;;;;;;;;;;;;5070498;28;19935;-77
2023/07/24 06:33:19;;;;;;;;;;;;;;;;;;5067076;28;19943;-77
2023/07/24 06:35:51;;;;;;;;;;;;;;;;;;5060802;28;21990;-78
2023/07/24 06:38:21;;;;;;;;;;;;;;;;;;5066008;28;19925;-77
2023/07/24 06:40:53;;;;;;;;;;;;;;;;;;5060756;28;19928;-77
2023/07/24 06:43:21;;;;;;;;;;;;;;;;;;5065280;28;19932;-78
2023/07/24 06:45:55;;;;;;;;;;;;;;;;;;5061435;28;20288;-78
2023/07/24 06:48:27;;;;;;;;;;;;;;;;;;5070906;28;19999;-77
2023/07/24 06:51:13;;;;;;;;;;;;;;;;;;5071587;28;19924;-77
2023/07/24 06:53:40;;;;;;;;;;;;;;;;;;5068710;28;19951;-77
2023/07/24 06:56:08;;;;;;;;;;;;;;;;;;5069109;28;19931;-78
2023/07/24 06:58:36;;;;;;;;;;;;;;;;;;5065335;28;19924;-77
2023/07/24 07:01:03;;;;;;;;;;;;;;;;;;5065764;28;19999;-77
2023/07/24 07:03:38;;;;;;;;;;;;;;;;;;5060568;28;19928;-77
2023/07/24 07:06:14;;;;;;;;;;;;;;;;;;5063964;28;19939;-77
2023/07/24 07:08:46;;;;;;;;;;;;;;;;;;5063618;28;20010;-78
2023/07/24 07:11:14;;;;;;;;;;;;;;;;;;5059659;28;19928;-78
2023/07/24 07:13:46;;;;;;;;;;;;;;;;;;5063835;28;19928;-78
2023/07/24 07:16:19;;;;;;;;;;;;;;;;;;5062894;28;19930;-78
2023/07/24 07:18:52;;;;;;;;;;;;;;;;;;5062556;28;19936;-77
2023/07/24 07:21:28;;;;;;;;;;;;;;;;;;5061756;28;19928;-78
2023/07/24 07:23:58;;;;;;;;;;;;;;;;;;5064688;28;19929;-78
2023/07/24 07:26:33;;;;;;;;;;;;;;;;;;5059467;28;19928;-77
2023/07/24 07:29:01;;;;;;;;;;;;;;;;;;5063588;28;19944;-79
2023/07/24 07:31:34;;;;;;;;;;;;;;;;;;5063837;28;19936;-78
2023/07/24 07:34:01;;;;;;;;;;;;;;;;;;5076346;28;19936;-78
2023/07/24 07:36:34;;;;;;;;;;;;;;;;;;5066429;28;20379;-77
2023/07/24 07:39:09;;;;;;;;;;;;;;;;;;5062077;28;19928;-76
2023/07/24 07:41:37;;;;;;;;;;;;;;;;;;5060026;28;19928;-78
2023/07/24 07:44:08;;;;;;;;;;;;;;;;;;5069542;28;19925;-77
2023/07/24 07:46:36;;;;;;;;;;;;;;;;;;5065993;28;19925;-77
2023/07/24 07:49:08;;;;;;;;;;;;;;;;;;5073722;28;19928;-77
2023/07/24 07:51:44;;;;;;;;;;;;;;;;;;5062682;28;19924;-76
2023/07/24 07:54:17;;;;;;;;;;;;;;;;;;5063630;28;20286;-76
2023/07/24 07:56:49;;;;;;;;;;;;;;;;;;5058863;28;20038;-76
2023/07/24 07:59:24;;;;;;;;;;;;;;;;;;5058539;28;19928;-76
2023/07/24 08:01:57;;;;;;;;;;;;;;;;;;5059070;28;19929;-77
2023/07/24 08:04:32;;;;;;;;;;;;;;;;;;5059466;28;19975;-78
2023/07/24 08:07:04;;;;;;;;;;;;;;;;;;5061339;28;19932;-77
2023/07/24 08:09:43;;;;;;;;;;;;;;;;;;5059719;28;19928;-77
2023/07/24 08:12:20;;;;;;;;;;;;;;;;;;5058671;28;19939;-76
2023/07/24 08:14:55;;;;;;;;;;;;;;;;;;5062562;28;19939;-77
2023/07/24 08:17:22;;;;;;;;;;;;;;;;;;5058918;28;19939;-77
2023/07/24 08:19:55;;;;;;;;;;;;;;;;;;5058854;28;19936;-77
2023/07/24 08:22:35;;;;;;;;;;;;;;;;;;5054923;28;20441;-78
2023/07/24 08:25:03;;;;;;;;;;;;;;;;;;5042001;28;19947;-77
2023/07/24 08:27:33;;;;;;;;;;;;;;;;;;5044591;28;19928;-77
2023/07/24 08:30:08;;;;;;;;;;;;;;;;;;5039255;28;19933;-78
2023/07/24 08:32:51;;;;;;;;;;;;;;;;;;5039965;28;19932;-77
2023/07/24 08:35:30;;;;;;;;;;;;;;;;;;5037976;28;19932;-77
2023/07/24 08:38:03;;;;;;;;;;;;;;;;;;5045975;28;21290;-77
2023/07/24 08:40:36;;;;;;;;;;;;;;;;;;5042761;28;20312;-77
2023/07/24 08:43:08;;;;;;;;;;;;;;;;;;5031783;28;19932;-77
2023/07/24 08:45:41;;;;;;;;;;;;;;;;;;5033718;28;19940;-76
2023/07/24 08:48:13;;;;;;;;;;;;;;;;;;5035112;28;20868;-77
2023/07/24 08:50:41;;;;;;;;;;;;;;;;;;5032031;28;19939;-76
2023/07/24 08:53:13;;;;;;;;;;;;;;;;;;5038532;28;19939;-77
2023/07/24 08:55:41;;;;;;;;;;;;;;;;;;5037319;28;20558;-78
2023/07/24 08:58:09;;;;;;;;;;;;;;;;;;5034922;28;20669;-78
2023/07/24 09:00:41;;;;;;;;;;;;;;;;;;5031666;28;20587;-77
2023/07/24 09:03:09;;;;;;;;;;;;;;;;;;5035562;28;19946;-77
2023/07/24 09:05:41;;;;;;;;;;;;;;;;;;5039337;28;19932;-77
2023/07/24 09:08:09;;;;;;;;;;;;;;;;;;5038144;28;19941;-78
2023/07/24 09:10:41;;;;;;;;;;;;;;;;;;5031896;28;19954;-79
2023/07/24 09:13:09;;;;;;;;;;;;;;;;;;5032196;28;19939;-76
2023/07/24 09:15:42;;;;;;;;;;;;;;;;;;5037451;28;19933;-78
2023/07/24 09:18:15;;;;;;;;;;;;;;;;;;5040469;28;19925;-78
2023/07/24 09:20:48;;;;;;;;;;;;;;;;;;5041381;28;19943;-78
2023/07/24 09:23:15;;;;;;;;;;;;;;;;;;5046507;28;19933;-78
2023/07/24 09:25:43;;;;;;;;;;;;;;;;;;5044567;28;19932;-77
2023/07/24 09:28:11;;;;;;;;;;;;;;;;;;5041359;28;19932;-78
2023/07/24 09:30:44;;;;;;;;;;;;;;;;;;5036289;28;20612;-77
2023/07/24 09:33:11;;;;;;;;;;;;;;;;;;5034946;28;19947;-78
2023/07/24 09:35:39;;;;;;;;;;;;;;;;;;5033923;28;20642;-78
2023/07/24 09:38:12;;;;;;;;;;;;;;;;;;5038530;28;19933;-78
2023/07/24 09:40:44;;;;;;;;;;;;;;;;;;5038354;28;19939;-78
2023/07/24 09:43:17;;;;;;;;;;;;;;;;;;5043815;28;19955;-78
2023/07/24 09:45:49;;;;;;;;;;;;;;;;;;5038938;28;19940;-78
2023/07/24 09:48:17;;;;;;;;;;;;;;;;;;5037892;28;20460;-78
2023/07/24 09:50:49;;;;;;;;;;;;;;;;;;5040546;28;19940;-78
2023/07/24 09:53:22;;;;;;;;;;;;;;;;;;5041273;28;21334;-78
2023/07/24 09:55:55;;;;;;;;;;;;;;;;;;5042460;28;19940;-78
2023/07/24 09:58:28;;;;;;;;;;;;;;;;;;5044530;28;20502;-78
2023/07/24 10:00:55;;;;;;;;;;;;;;;;;;5047063;28;19939;-78
2023/07/24 10:03:23;;;;;;;;;;;;;;;;;;5052657;28;19936;-78
2023/07/24 10:05:51;;;;;;;;;;;;;;;;;;5038235;28;19961;-79
2023/07/24 10:08:20;;;;;;;;;;;;;;;;;;5043861;28;20294;-79
2023/07/24 10:10:51;;;;;;;;;;;;;;;;;;5035640;28;19929;-79
2023/07/24 10:13:23;;;;;;;;;;;;;;;;;;5040907;28;19932;-79
2023/07/24 10:15:51;;;;;;;;;;;;;;;;;;5039208;28;20368;-81
2023/07/24 10:18:18;;;;;;;;;;;;;;;;;;5041496;28;19932;-79
2023/07/24 10:20:51;;;;;;;;;;;;;;;;;;5036430;28;19933;-79
2023/07/24 10:23:19;;;;;;;;;;;;;;;;;;5007464;28;19932;-80
2023/07/24 10:25:47;;;;;;;;;;;;;;;;;;5031625;28;20320;-79
2023/07/24 10:28:16;;;;;;;;;;;;;;;;;;5040019;28;20419;-79
2023/07/24 10:30:43;;;;;;;;;;;;;;;;;;5038908;28;19933;-77
2023/07/24 10:33:16;;;;;;;;;;;;;;;;;;5044476;28;19931;-77
2023/07/24 10:35:49;;;;;;;;;;;;;;;;;;5041960;28;19940;-78
2023/07/24 10:38:21;;;;;;;;;;;;;;;;;;5039456;28;19952;-77
2023/07/24 10:40:54;;;;;;;;;;;;;;;;;;5036991;28;19932;-77
2023/07/24 10:43:21;;;;;;;;;;;;;;;;;;5048409;28;19939;-78
2023/07/24 10:45:54;;;;;;;;;;;;;;;;;;5036571;28;19940;-78
2023/07/24 10:48:26;;;;;;;;;;;;;;;;;;5033793;28;21182;-78
2023/07/24 10:50:59;;;;;;;;;;;;;;;;;;5034277;28;19932;-77
2023/07/24 10:53:28;;;;;;;;;;;;;;;;;;5036042;28;19933;-78
2023/07/24 10:56:00;;;;;;;;;;;;;;;;;;5037586;28;19932;-78
2023/07/24 10:58:35;;;;;;;;;;;;;;;;;;5043021;28;19935;-81
2023/07/24 11:01:08;;;;;;;;;;;;;;;;;;5037413;28;21872;-79
2023/07/24 11:03:35;;;;;;;;;;;;;;;;;;5029435;28;20463;-79
2023/07/24 11:06:03;;;;;;;;;;;;;;;;;;5032008;28;19932;-79
2023/07/24 11:08:31;;;;;;;;;;;;;;;;;;5048096;28;20312;-79
2023/07/24 11:11:04;;;;;;;;;;;;;;;;;;5032529;28;19933;-80
2023/07/24 11:13:36;;;;;;;;;;;;;;;;;;5033937;28;20432;-79
2023/07/24 11:16:04;;;;;;;;;;;;;;;;;;5032931;28;20866;-79
2023/07/24 11:18:32;;;;;;;;;;;;;;;;;;5040349;28;19932;-79
2023/07/24 11:20:59;;;;;;;;;;;;;;;;;;5035906;28;19939;-78
2023/07/24 11:23:27;;;;;;;;;;;;;;;;;;5022051;28;19933;-79
2023/07/24 11:25:54;;;;;;;;;;;;;;;;;;5039199;28;20600;-79
2023/07/24 11:28:27;;;;;;;;;;;;;;;;;;5036567;28;19932;-79
2023/07/24 11:30:54;;;;;;;;;;;;;;;;;;5040439;28;19932;-79
2023/07/24 11:33:22;;;;;;;;;;;;;;;;;;5034946;28;19932;-79
2023/07/24 11:35:55;;;;;;;;;;;;;;;;;;5038779;28;21486;-78
2023/07/24 11:38:22;;;;;;;;;;;;;;;;;;5052928;28;21303;-79
2023/07/24 11:40:50;;;;;;;;;;;;;;;;;;5037852;28;19932;-80
2023/07/24 11:43:22;;;;;;;;;;;;;;;;;;5059025;28;19939;-79
2023/07/24 11:45:51;;;;;;;;;;;;;;;;;;5033289;28;19933;-78
2023/07/24 11:48:19;;;;;;;;;;;;;;;;;;5036639;28;19932;-79
2023/07/24 11:50:47;;;;;;;;;;;;;;;;;;5047218;28;19928;-79
2023/07/24 11:53:15;;;;;;;;;;;;;;;;;;5036659;28;20328;-79
2023/07/24 11:55:47;;;;;;;;;;;;;;;;;;5036300;28;19932;-77
2023/07/24 11:58:15;;;;;;;;;;;;;;;;;;5039419;28;19941;-79
2023/07/24 12:00:42;;;;;;;;;;;;;;;;;;5041017;28;19928;-79
2023/07/24 12:03:10;;;;;;;;;;;;;;;;;;5034592;28;19932;-78
2023/07/24 12:05:43;;;;;;;;;;;;;;;;;;5038735;28;19932;-79
2023/07/24 12:08:10;;;;;;;;;;;;;;;;;;5055984;28;19939;-78
2023/07/24 12:10:38;;;;;;;;;;;;;;;;;;5043357;28;19933;-78
2023/07/24 12:13:10;;;;;;;;;;;;;;;;;;5040803;28;19932;-77
2023/07/24 12:15:38;;;;;;;;;;;;;;;;;;5041855;28;19943;-78
2023/07/24 12:18:11;;;;;;;;;;;;;;;;;;5041669;28;19943;-80
2023/07/24 12:20:44;;;;;;;;;;;;;;;;;;5047127;28;19943;-79
2023/07/24 12:23:16;;;;;;;;;;;;;;;;;;5017730;28;19940;-79
2023/07/24 12:25:44;;;;;;;;;;;;;;;;;;5038866;28;20854;-79
2023/07/24 12:28:12;;;;;;;;;;;;;;;;;;5038687;28;19933;-79
2023/07/24 12:30:39;;;;;;;;;;;;;;;;;;5036367;28;19932;-79
2023/07/24 12:33:07;;;;;;;;;;;;;;;;;;5039187;28;19941;-79
2023/07/24 12:35:39;;;;;;;;;;;;;;;;;;5037622;28;19933;-79
2023/07/24 12:38:07;;;;;;;;;;;;;;;;;;5035564;28;19936;-81
2023/07/24 12:40:34;;;;;;;;;;;;;;;;;;5037573;28;20775;-81
2023/07/24 12:43:07;;;;;;;;;;;;;;;;;;5041032;28;19932;-78
2023/07/24 12:45:34;;;;;;;;;;;;;;;;;;5038417;28;19932;-79
2023/07/24 12:48:02;;;;;;;;;;;;;;;;;;5038821;28;20348;-79
2023/07/24 12:50:35;;;;;;;;;;;;;;;;;;5043839;28;19935;-80
2023/07/24 12:53:02;;;;;;;;;;;;;;;;;;5057703;28;20490;-78
2023/07/24 12:55:30;;;;;;;;;;;;;;;;;;5043659;28;19932;-79
2023/07/24 12:57:58;;;;;;;;;;;;;;;;;;5038565;28;19939;-80
2023/07/24 13:00:25;;;;;;;;;;;;;;;;;;5041881;28;20477;-79
2023/07/24 13:02:53;;;;;;;;;;;;;;;;;;5059541;28;19933;-79
2023/07/24 13:05:20;;;;;;;;;;;;;;;;;;5026795;28;19933;-80
2023/07/24 13:07:48;;;;;;;;;;;;;;;;;;5039505;28;19932;-80
2023/07/24 13:10:20;;;;;;;;;;;;;;;;;;5017747;28;19929;-78
2023/07/24 13:12:48;;;;;;;;;;;;;;;;;;5022936;28;20460;-79
2023/07/24 13:15:16;;;;;;;;;;;;;;;;;;5019282;28;19932;-80
2023/07/24 13:17:48;;;;;;;;;;;;;;;;;;5027930;28;19939;-83
2023/07/24 13:20:16;;;;;;;;;;;;;;;;;;5024475;28;20684;-79
2023/07/24 13:22:46;;;;;;;;;;;;;;;;;;5018756;28;19940;-79
2023/07/24 13:25:19;;;;;;;;;;;;;;;;;;5034707;28;21647;-81
2023/07/24 13:27:52;;;;;;;;;;;;;;;;;;5044487;28;19929;-81
2023/07/24 13:30:25;;;;;;;;;;;;;;;;;;5049891;28;19932;-80
2023/07/24 13:32:52;;;;;;;;;;;;;;;;;;5040714;28;19931;-81
2023/07/24 13:35:20;;;;;;;;;;;;;;;;;;5042824;28;19933;-80
2023/07/24 13:37:48;;;;;;;;;;;;;;;;;;5043906;28;19933;-80
2023/07/24 13:40:20;;;;;;;;;;;;;;;;;;5049329;28;19940;-80
2023/07/24 13:42:48;;;;;;;;;;;;;;;;;;5059872;28;19938;-80
2023/07/24 13:45:20;;;;;;;;;;;;;;;;;;5060220;28;19936;-79
2023/07/24 13:47:48;;;;;;;;;;;;;;;;;;5066486;28;19925;-79
2023/07/24 13:50:15;;;;;;;;;;;;;;;;;;5066561;28;19936;-79
2023/07/24 13:52:43;;;;;;;;;;;;;;;;;;5066695;28;20398;-80
2023/07/24 13:55:10;;;;;;;;;;;;;;;;;;5067905;28;19929;-80
2023/07/24 13:57:38;;;;;;;;;;;;;;;;;;5066257;28;19929;-81
2023/07/24 14:00:05;;;;;;;;;;;;;;;;;;5066841;28;19935;-79
2023/07/24 14:02:41;;;;;;;;;;;;;;;;;;5067719;28;19928;-79
2023/07/24 14:05:09;;;;;;;;;;;;;;;;;;5066680;28;19924;-79
2023/07/24 14:07:36;;;;;;;;;;;;;;;;;;5066528;28;19925;-79
2023/07/24 14:10:04;;;;;;;;;;;;;;;;;;5067991;28;19929;-79
2023/07/24 14:12:32;;;;;;;;;;;;;;;;;;5067832;28;19925;-79
2023/07/24 14:14:59;;;;;;;;;;;;;;;;;;5069218;28;20406;-79
2023/07/24 14:17:32;;;;;;;;;;;;;;;;;;5083342;28;19924;-79
2023/07/24 14:20:04;;;;;;;;;;;;;;;;;;5068256;28;19925;-79
2023/07/24 14:22:37;;;;;;;;;;;;;;;;;;5067088;28;19924;-79
2023/07/24 14:25:09;;;;;;;;;;;;;;;;;;5066639;28;19924;-79
2023/07/24 14:27:42;;;;;;;;;;;;;;;;;;5067243;28;20599;-79
2023/07/24 14:30:14;;;;;;;;;;;;;;;;;;5066978;28;19931;-79
2023/07/24 14:32:47;;;;;;;;;;;;;;;;;;5069269;28;19928;-79
2023/07/24 14:35:23;;;;;;;;;;;;;;;;;;5069227;28;19924;-79
2023/07/24 14:37:50;;;;;;;;;;;;;;;;;;5068089;28;19929;-79
2023/07/24 14:40:23;;;;;;;;;;;;;;;;;;5077675;28;19925;-79
2023/07/24 14:42:50;;;;;;;;;;;;;;;;;;5069698;28;19935;-79
2023/07/24 14:45:18;;;;;;;;;;;;;;;;;;5073397;28;20285;-79
2023/07/24 14:47:45;;;;;;;;;;;;;;;;;;5070324;28;19929;-78
2023/07/24 14:50:13;;;;;;;;;;;;;;;;;;5071520;28;20308;-79
2023/07/24 14:52:40;;;;;;;;;;;;;;;;;;5068690;28;19929;-80
2023/07/24 14:55:10;;;;;;;;;;;;;;;;;;5072156;28;19925;-79
2023/07/24 14:57:43;;;;;;;;;;;;;;;;;;5086930;28;19936;-79
2023/07/24 15:00:16;;;;;;;;;;;;;;;;;;5070070;28;19928;-79
2023/07/24 15:02:43;;;;;;;;;;;;;;;;;;5068321;28;19935;-79
2023/07/24 15:05:11;;;;;;;;;;;;;;;;;;5070978;28;20340;-79
2023/07/24 15:07:43;;;;;;;;;;;;;;;;;;5071085;28;19928;-79
2023/07/24 15:10:11;;;;;;;;;;;;;;;;;;5069527;28;19940;-79
2023/07/24 15:12:43;;;;;;;;;;;;;;;;;;5084033;28;19929;-78
2023/07/24 15:15:11;;;;;;;;;;;;;;;;;;5070726;28;19936;-79
2023/07/24 15:17:44;;;;;;;;;;;;;;;;;;5066769;28;19928;-78
2023/07/24 15:20:12;;;;;;;;;;;;;;;;;;5071587;28;19928;-78
2023/07/24 15:22:40;;;;;;;;;;;;;;;;;;5046748;28;19940;-79
2023/07/24 15:25:13;;;;;;;;;;;;;;;;;;5041761;28;21262;-80
2023/07/24 15:27:40;;;;;;;;;;;;;;;;;;5039357;28;19936;-79
2023/07/24 15:30:13;;;;;;;;;;;;;;;;;;5036029;28;19939;-79
2023/07/24 15:32:40;;;;;;;;;;;;;;;;;;5039972;28;19975;-81
2023/07/24 15:35:08;;;;;;;;;;;;;;;;;;5037931;28;20427;-79
2023/07/24 15:37:40;;;;;;;;;;;;;;;;;;5040751;28;19943;-80
2023/07/24 15:40:13;;;;;;;;;;;;;;;;;;5039192;28;19939;-79
2023/07/24 15:42:46;;;;;;;;;;;;;;;;;;5034735;28;19933;-80
2023/07/24 15:45:19;;;;;;;;;;;;;;;;;;5042315;28;19932;-80
2023/07/24 15:47:46;;;;;;;;;;;;;;;;;;5034016;28;20702;-81
2023/07/24 15:50:14;;;;;;;;;;;;;;;;;;5045001;28;19933;-79
2023/07/24 15:52:46;;;;;;;;;;;;;;;;;;5045136;28;20758;-80
2023/07/24 15:55:14;;;;;;;;;;;;;;;;;;5059116;28;19935;-80
2023/07/24 15:57:42;;;;;;;;;;;;;;;;;;5051261;28;19939;-79
2023/07/24 16:00:15;;;;;;;;;;;;;;;;;;5047603;28;19933;-79
2023/07/24 16:02:42;;;;;;;;;;;;;;;;;;5042032;28;19933;-80
2023/07/24 16:05:10;;;;;;;;;;;;;;;;;;5045281;28;19939;-79
2023/07/24 16:07:38;;;;;;;;;;;;;;;;;;5040867;28;19940;-81
2023/07/24 16:10:05;;;;;;;;;;;;;;;;;;5040468;28;20763;-79
2023/07/24 16:12:38;;;;;;;;;;;;;;;;;;5039069;28;20545;-79
2023/07/24 16:15:06;;;;;;;;;;;;;;;;;;5039193;28;19940;-80
2023/07/24 16:17:38;;;;;;;;;;;;;;;;;;5042585;28;19932;-80
2023/07/24 16:20:11;;;;;;;;;;;;;;;;;;5051110;28;20468;-78
2023/07/24 16:22:38;;;;;;;;;;;;;;;;;;5045054;28;19932;-81
2023/07/24 16:25:06;;;;;;;;;;;;;;;;;;5047196;28;20603;-79
2023/07/24 16:27:34;;;;;;;;;;;;;;;;;;5045653;28;19928;-80
2023/07/24 16:30:06;;;;;;;;;;;;;;;;;;5043951;28;19939;-80
2023/07/24 16:32:39;;;;;;;;;;;;;;;;;;5038971;28;20564;-79
2023/07/24 16:35:06;;;;;;;;;;;;;;;;;;5039617;28;20070;-78
2023/07/24 16:37:34;;;;;;;;;;;;;;;;;;5046051;28;19932;-78
2023/07/24 16:40:01;;;;;;;;;;;;;;;;;;5048996;28;19933;-78
2023/07/24 16:42:29;;;;;;;;;;;;;;;;;;5042039;28;19932;-78
2023/07/24 16:45:02;;;;;;;;;;;;;;;;;;5042506;28;19933;-79
2023/07/24 16:47:29;;;;;;;;;;;;;;;;;;5042802;28;19943;-78
2023/07/24 16:49:57;;;;;;;;;;;;;;;;;;5045433;28;19932;-78
2023/07/24 16:52:29;;;;;;;;;;;;;;;;;;5042817;28;19939;-78
2023/07/24 16:54:57;;;;;;;;;;;;;;;;;;5052474;28;19932;-78
2023/07/24 16:57:29;;;;;;;;;;;;;;;;;;5040823;28;19940;-78
2023/07/24 17:00:02;;;;;;;;;;;;;;;;;;5048946;28;20281;-78
2023/07/24 17:02:37;;;;;;;;;;;;;;;;;;5042823;28;19933;-80
2023/07/24 17:05:04;;;;;;;;;;;;;;;;;;5061156;28;19939;-79